12:21
Airports
Links
Donate
Help keep this website running!
PayPal
Bitcoin
METAR
KLGA 121151Z 16014G19KT 10SM FEW025 BKN080 OVC095 09/03 A2967 RMK AO2 SLP047 T00890033 10089 20039 58041 $
Current Weather Conditions at KLGA
VFR 11:51:00 12-12-17
Automated station
Altimeter:29.67 hg
Temp:8.9°c 46°f
Dew point:3.3°c 37°f
Wind:14 knots, 16.1 mph, 7 m/s, from 160°
Visibility:10.0 statute miles
9500(OVC) Overcast
8000(BKN) Broken
2500(FEW) A few
Past METAR reports
VFR 10:51:00 12-12-17
Automated station
Altimeter:29.72 hg
Temp:8.3°c 46°f
Dew point:2.8°c 36°f
Wind:12 knots, 13.8 mph, 6 m/s, from 170°
Visibility:10.0 statute miles
4900(OVC) Overcast
4000(BKN) Broken
3100(SCT) Scattered
KLGA 121051Z 17012KT 10SM SCT031 BKN040 OVC049 08/03 A2972 RMK AO2 SLP062 T00830028 $
VFR 09:51:00 12-12-17
Automated station
Altimeter:29.76 hg
Temp:7.2°c 45°f
Dew point:2.2°c 36°f
Wind:9 knots, 10.4 mph, 5 m/s, from 180°
Visibility:10.0 statute miles
7500(OVC) Overcast
4200(BKN) Broken
3300(SCT) Scattered
KLGA 120951Z 18009G14KT 10SM SCT033 BKN042 OVC075 07/02 A2976 RMK AO2 SLP076 T00720022 $
VFR 08:51:00 12-12-17
Automated station
Altimeter:29.79 hg
Temp:6.7°c 43°f
Dew point:0.6°c 32°f
Wind:7 knots, 8.1 mph, 4 m/s, from 170°
Visibility:10.0 statute miles
8500(OVC) Overcast
3400(SCT) Scattered
KLGA 120851Z 17007KT 10SM SCT034 OVC085 07/01 A2979 RMK AO2 SLP088 T00670006 58039 $
VFR 07:51:00 12-12-17
Automated station
Altimeter:29.83 hg
Temp:3.9°c 37°f
Dew point:-1.7°c 30°f
Wind:7 knots, 8.1 mph, 4 m/s, from 100°
Visibility:10.0 statute miles
13000(OVC) Overcast
7500(BKN) Broken
3400(SCT) Scattered
KLGA 120751Z 10007KT 10SM SCT034 BKN075 OVC130 04/M02 A2983 RMK AO2 SLP102 T00391017 $
VFR 06:51:00 12-12-17
Automated station
Altimeter:29.87 hg
Temp:3.9°c 37°f
Dew point:-2.8°c 28°f
Wind:6 knots, 6.9 mph, 3 m/s, from 100°
Visibility:10.0 statute miles
14000(OVC) Overcast
8000(SCT) Scattered
3500(SCT) Scattered
KLGA 120651Z 10006KT 10SM SCT035 SCT080 OVC140 04/M03 A2987 RMK AO2 SLP116 T00391028 $
TAF
KLGA 121138Z 1212/1318 15008KT P6SM VCSH BKN030 OVC050 FM121400 19012G18KT 6SM -SHRA BKN025 OVC040 FM121900 25013KT P6SM OVC025 FM130000 28017G25KT P6SM BKN040 FM130300 28020G30KT P6SM -SHSN BKN040 FM130700 28020G34KT P6SM SCT040 BKN100 FM131300 29025G38KT P6SM BKN100
Forecast at KLGA
12:00 12-12-17 to 14:00 12-12-17
VCSH
Wind:8 Knots from 150°
Visibility:6.21 statute miles
3000BKN Broken
5000OVC Overcast
FM 14:00 12-12-17 to 19:00 12-12-17
-SHRA
Wind:12 Knots from 190°
Visibility:6.0 statute miles
2500BKN Broken
4000OVC Overcast
FM 19:00 12-12-17 to 00:00 13-12-17
Wind:13 Knots from 250°
Visibility:6.21 statute miles
2500OVC Overcast
FM 00:00 13-12-17 to 03:00 13-12-17
Wind:17 Knots from 280°
Visibility:6.21 statute miles
4000BKN Broken
FM 03:00 13-12-17 to 07:00 13-12-17
-SHSN
Wind:20 Knots from 280°
Visibility:6.21 statute miles
4000BKN Broken
FM 07:00 13-12-17 to 13:00 13-12-17
Wind:20 Knots from 280°
Visibility:6.21 statute miles
4000SCT Scattered
10000BKN Broken
FM 13:00 13-12-17 to 18:00 13-12-17
Wind:25 Knots from 290°
Visibility:6.21 statute miles
10000BKN Broken